Time;durP1;ratioP1;P1;durP2;ratioP2;P2;SDS_P1;SDS_P2;PMS_P1;PMS_P2;Temp;Humidity;BMP_temperature;BMP_pressure;BME280_temperature;BME280_humidity;BME280_pressure;Samples;Min_cycle;Max_cycle;Signal;HPM_P1;HPM_P2
2021/11/01 00:01:28;;;;;;;49.08;34.83;;;;;;;14.40;66.09;101623.69;5035015;27;103910;-51
2021/11/01 00:04:01;;;;;;;49.67;35.70;;;;;;;14.38;66.19;101617.66;5034903;27;102434;-50
2021/11/01 00:06:28;;;;;;;48.85;34.53;;;;;;;14.39;66.18;101627.53;5031268;27;102326;-53
2021/11/01 00:08:56;;;;;;;49.08;35.08;;;;;;;14.39;66.06;101622.03;5034250;27;102201;-50
2021/11/01 00:11:22;;;;;;;49.80;34.00;;;;;;;14.38;66.16;101620.38;5032195;27;103975;-51
2021/11/01 00:13:54;;;;;;;49.80;34.17;;;;;;;14.39;66.22;101630.25;5036670;27;102198;-51
2021/11/01 00:16:20;;;;;;;48.13;34.50;;;;;;;14.39;66.03;101617.38;5036491;27;102485;-51
2021/11/01 00:18:47;;;;;;;47.80;33.45;;;;;;;14.39;65.90;101613.84;5036128;27;103745;-51
2021/11/01 00:21:14;;;;;;;44.88;32.80;;;;;;;14.38;66.24;101618.47;5036716;27;104033;-51
2021/11/01 00:23:42;;;;;;;47.60;33.13;;;;;;;14.39;66.01;101616.56;5036566;27;102701;-50
2021/11/01 00:26:08;;;;;;;49.80;34.25;;;;;;;14.38;66.25;101614.91;5032932;28;104632;-51
2021/11/01 00:28:35;;;;;;;46.22;32.10;;;;;;;14.39;66.17;101613.84;5032537;27;103724;-53
2021/11/01 00:31:03;;;;;;;47.13;33.30;;;;;;;14.39;66.00;101611.09;5033000;27;103921;-51
2021/11/01 00:33:29;;;;;;;46.83;33.30;;;;;;;14.38;66.18;101601.22;5029571;27;102267;-51
2021/11/01 00:35:56;;;;;;;44.88;31.95;;;;;;;14.38;66.27;101598.47;5036241;27;102162;-51
2021/11/01 00:38:22;;;;;;;43.67;31.85;;;;;;;14.38;66.27;101598.47;5032404;27;102282;-51
2021/11/01 00:40:49;;;;;;;44.63;32.70;;;;;;;14.39;66.14;101591.94;5028808;27;103946;-51
2021/11/01 00:43:16;;;;;;;45.20;31.95;;;;;;;14.38;66.26;101595.75;5024823;27;102135;-51
2021/11/01 00:45:43;;;;;;;43.88;31.10;;;;;;;14.38;66.14;101598.47;5035692;27;102704;-51
2021/11/01 00:48:10;;;;;;;44.67;32.22;;;;;;;14.38;66.01;101582.03;5031915;27;102465;-51
2021/11/01 00:50:38;;;;;;;41.63;31.65;;;;;;;14.38;66.55;101582.03;5028055;27;104050;-51
2021/11/01 00:53:06;;;;;;;44.03;31.40;;;;;;;14.38;66.14;101587.53;5035942;27;102597;-51
2021/11/01 00:58:02;;;;;;;42.85;30.08;;;;;;;14.39;66.36;101589.19;5034659;27;102348;-51
2021/11/01 01:00:29;;;;;;;42.90;30.52;;;;;;;14.38;66.46;101571.91;5029932;28;104081;-51
2021/11/01 01:02:56;;;;;;;42.47;30.55;;;;;;;14.38;66.25;101571.09;5037083;27;102440;-55
2021/11/01 01:05:24;;;;;;;40.35;29.95;;;;;;;14.38;66.15;101565.63;5022654;27;102464;-52
2021/11/01 01:07:51;;;;;;;39.65;30.77;;;;;;;14.38;66.13;101566.44;5035350;27;102519;-51
2021/11/01 01:10:17;;;;;;;44.33;31.60;;;;;;;14.38;66.12;101551.94;5036586;27;103849;-51
2021/11/01 01:12:45;;;;;;;41.72;30.98;;;;;;;14.38;66.13;101551.94;5042499;28;102171;-51
2021/11/01 01:15:16;;;;;;;38.15;29.35;;;;;;;14.38;66.36;101549.19;5049951;27;101490;-51
2021/11/01 01:17:45;;;;;;;39.55;29.85;;;;;;;14.38;66.16;101552.75;5051225;27;102159;-51
2021/11/01 01:20:18;;;;;;;40.08;30.70;;;;;;;14.38;66.16;101543.72;5045275;27;103945;-51
2021/11/01 01:22:47;;;;;;;41.65;29.10;;;;;;;14.38;66.39;101538.22;5037252;27;102400;-51
2021/11/01 01:25:21;;;;;;;43.35;30.38;;;;;;;14.38;65.97;101549.19;5030938;27;102348;-50
2021/11/01 01:27:51;;;;;;;43.60;29.77;;;;;;;14.38;66.10;101549.19;5041515;27;102060;-51
2021/11/01 01:30:19;;;;;;;39.80;29.40;;;;;;;14.39;66.05;101548.09;5031628;27;103991;-50
2021/11/01 01:32:45;;;;;;;42.00;30.80;;;;;;;14.38;66.35;101544.53;5034159;27;103740;-51
2021/11/01 01:35:13;;;;;;;40.38;29.63;;;;;;;14.38;66.11;101544.53;5034535;27;102443;-50
2021/11/01 01:37:40;;;;;;;40.45;29.70;;;;;;;14.38;66.36;101544.53;5037383;27;102312;-50
2021/11/01 01:40:26;;;;;;;38.65;28.38;;;;;;;14.38;66.09;101543.72;5034808;27;103387;-50
2021/11/01 01:43:10;;;;;;;40.65;29.70;;;;;;;14.39;66.22;101545.38;5032916;27;102272;-51
2021/11/01 01:45:55;;;;;;;39.05;29.25;;;;;;;14.38;66.29;101543.72;5029493;28;102028;-50
2021/11/01 01:48:21;;;;;;;40.08;29.15;;;;;;;14.39;66.28;101545.38;5032956;27;103114;-51
2021/11/01 01:50:47;;;;;;;38.13;28.42;;;;;;;14.39;66.33;101550.84;5034664;27;104226;-51
2021/11/01 01:53:14;;;;;;;39.58;28.15;;;;;;;14.38;66.24;101543.72;5033492;27;102386;-51
2021/11/01 01:55:42;;;;;;;39.33;28.00;;;;;;;14.38;66.47;101549.19;5025326;27;102141;-51
2021/11/01 01:58:32;;;;;;;36.47;27.70;;;;;;;14.38;66.22;101551.94;5034148;27;102064;-51
2021/11/01 02:01:17;;;;;;;38.53;28.75;;;;;;;14.38;66.14;101540.97;5034368;27;102461;-51
2021/11/01 02:04:02;;;;;;;36.92;26.30;;;;;;;14.38;66.35;101547.25;5031921;27;102760;-51
2021/11/01 02:07:02;;;;;;;39.75;27.60;;;;;;;14.38;66.49;101549.19;5035645;27;102368;-50
2021/11/01 02:09:56;;;;;;;36.13;26.88;;;;;;;14.37;66.44;101542.88;5027135;27;102680;-51
2021/11/01 02:12:46;;;;;;;37.85;27.33;;;;;;;14.39;66.41;101539.91;5030974;27;106457;-51
2021/11/01 02:15:36;;;;;;;37.85;27.55;;;;;;;14.37;66.44;101537.41;5034908;27;102307;-51
2021/11/01 02:18:23;;;;;;;37.15;26.73;;;;;;;14.38;66.20;101543.72;5032982;27;102176;-51
2021/11/01 02:21:16;;;;;;;34.75;25.77;;;;;;;14.38;66.55;101539.03;5022196;28;105250;-51
2021/11/01 02:24:05;;;;;;;34.55;26.80;;;;;;;14.38;66.31;101538.22;5027447;27;102411;-51
2021/11/01 02:26:52;;;;;;;36.17;26.95;;;;;;;14.38;66.42;101543.72;5032457;27;102217;-51
2021/11/01 02:29:19;;;;;;;34.20;25.63;;;;;;;14.38;66.52;101543.72;5033856;27;102166;-51
2021/11/01 02:31:47;;;;;;;35.50;26.45;;;;;;;14.37;66.56;101547.56;5032159;27;104013;-51
2021/11/01 02:34:13;;;;;;;36.20;27.50;;;;;;;14.37;66.17;101536.59;5032753;27;103835;-51
2021/11/01 02:36:43;;;;;;;36.53;26.83;;;;;;;14.38;66.16;101538.22;5028862;27;102068;-52
2021/11/01 02:39:09;;;;;;;35.10;25.23;;;;;;;14.37;65.88;101536.59;5035214;27;102383;-51
2021/11/01 02:41:55;;;;;;;33.45;24.95;;;;;;;14.37;66.40;101531.13;5034539;27;102381;-51
2021/11/01 02:44:22;;;;;;;34.20;25.60;;;;;;;14.38;66.47;101532.75;5028801;27;103873;-51
2021/11/01 02:46:48;;;;;;;35.08;25.90;;;;;;;14.38;66.63;101527.28;5029088;27;102253;-51
2021/11/01 02:49:15;;;;;;;32.20;25.70;;;;;;;14.37;66.53;101531.13;5031864;27;102362;-51
2021/11/01 02:51:42;;;;;;;35.63;26.30;;;;;;;14.37;66.28;101531.13;5035466;27;102241;-50
2021/11/01 02:54:10;;;;;;;36.20;25.20;;;;;;;14.37;66.34;101520.16;5033860;27;103529;-51
2021/11/01 02:56:36;;;;;;;33.70;24.98;;;;;;;14.37;66.30;101523.72;5033292;27;102529;-51
2021/11/01 02:59:04;;;;;;;36.40;25.80;;;;;;;14.37;66.20;101520.16;5032077;27;102243;-50
2021/11/01 03:01:32;;;;;;;35.67;26.40;;;;;;;14.38;66.49;101524.53;5033703;27;102434;-51
2021/11/01 03:03:58;;;;;;;34.60;25.95;;;;;;;14.37;66.34;101525.66;5025028;27;103744;-51
2021/11/01 03:06:28;;;;;;;34.45;25.75;;;;;;;14.38;66.49;101519.06;5033911;27;102643;-51
2021/11/01 03:08:56;;;;;;;33.08;24.65;;;;;;;14.37;66.58;101520.16;5034640;27;102449;-51
2021/11/01 03:11:24;;;;;;;32.40;24.80;;;;;;;14.37;65.95;101525.66;5035068;27;102258;-50
2021/11/01 03:13:50;;;;;;;31.65;25.08;;;;;;;14.37;66.17;101520.16;5035438;27;103933;-51
2021/11/01 03:16:21;;;;;;;31.38;24.33;;;;;;;14.37;66.37;101515.50;5036339;27;105447;-51
2021/11/01 03:18:57;;;;;;;36.13;24.00;;;;;;;14.38;66.25;101519.06;5037233;27;102317;-51
2021/11/01 03:21:25;;;;;;;31.90;24.80;;;;;;;14.38;66.36;101519.06;5021017;28;102310;-51
2021/11/01 03:23:52;;;;;;;32.72;23.35;;;;;;;14.37;66.50;101514.69;5036343;27;103865;-51
2021/11/01 03:26:21;;;;;;;32.20;24.02;;;;;;;14.38;66.41;101524.53;5036367;27;102170;-51
2021/11/01 03:28:50;;;;;;;32.70;24.60;;;;;;;14.37;66.65;101515.50;5035965;27;102372;-51
2021/11/01 03:31:20;;;;;;;29.38;23.08;;;;;;;14.37;66.26;101518.25;5038376;27;102240;-51
2021/11/01 03:33:47;;;;;;;31.80;23.50;;;;;;;14.38;66.42;101516.31;5035405;27;103919;-50
2021/11/01 03:36:13;;;;;;;34.03;24.15;;;;;;;14.37;66.55;101518.25;5034784;27;103172;-51
2021/11/01 03:38:42;;;;;;;31.40;24.15;;;;;;;14.38;66.59;101524.53;5035964;27;102161;-51
2021/11/01 03:41:10;;;;;;;31.10;23.57;;;;;;;14.38;66.55;101525.34;5036407;27;102551;-51
2021/11/01 03:43:41;;;;;;;28.43;22.87;;;;;;;14.38;66.48;101532.75;5032812;27;104123;-51
2021/11/01 03:46:09;;;;;;;30.63;22.48;;;;;;;14.37;66.33;101520.16;5036789;27;102368;-51
2021/11/01 03:48:39;;;;;;;31.17;23.92;;;;;;;14.38;65.88;101527.28;5033058;27;102145;-51
2021/11/01 03:51:10;;;;;;;31.08;23.17;;;;;;;14.38;66.66;101521.81;5037684;27;102239;-51
2021/11/01 03:53:37;;;;;;;30.40;23.25;;;;;;;14.38;66.42;101516.31;5036151;27;104024;-51
2021/11/01 03:56:05;;;;;;;31.33;23.05;;;;;;;14.37;66.36;101515.50;5038272;27;102385;-50
2021/11/01 03:58:33;;;;;;;29.67;23.67;;;;;;;14.37;66.58;101509.22;5032249;27;102269;-51
2021/11/01 04:01:00;;;;;;;31.95;23.55;;;;;;;14.37;66.38;101510.03;5039224;27;103519;-51
2021/11/01 04:03:27;;;;;;;32.42;23.85;;;;;;;14.38;66.38;101510.84;5035255;27;103894;-51
2021/11/01 04:06:02;;;;;;;30.88;23.15;;;;;;;14.37;66.90;101503.75;5038124;27;102235;-51
2021/11/01 04:08:29;;;;;;;26.92;22.02;;;;;;;14.38;66.54;101510.84;5032307;27;102210;-51
2021/11/01 04:10:56;;;;;;;32.35;23.20;;;;;;;14.37;66.53;101509.22;5039055;27;102190;-51
2021/11/01 04:13:23;;;;;;;30.92;23.40;;;;;;;14.38;66.41;101505.38;5036025;27;103729;-51
2021/11/01 04:15:57;;;;;;;31.58;22.48;;;;;;;14.38;66.43;101499.91;5038445;27;102127;-51
2021/11/01 04:18:27;;;;;;;32.15;23.52;;;;;;;14.38;66.40;101511.66;5034177;27;102111;-51
2021/11/01 04:20:55;;;;;;;29.67;21.92;;;;;;;14.38;66.48;101503.44;5035843;27;102389;-52
2021/11/01 04:23:29;;;;;;;29.70;22.57;;;;;;;14.38;66.42;101494.41;5033065;27;104110;-51
2021/11/01 04:25:58;;;;;;;26.45;21.80;;;;;;;14.38;66.54;101488.94;5037696;27;102356;-51
2021/11/01 04:28:25;;;;;;;29.20;22.73;;;;;;;14.37;66.49;101498.25;5033381;27;102700;-51
2021/11/01 04:31:00;;;;;;;27.10;21.70;;;;;;;14.38;66.53;101486.19;5037940;27;102503;-51
2021/11/01 04:33:27;;;;;;;29.05;22.63;;;;;;;14.37;66.52;101490.88;5034747;27;103951;-51
2021/11/01 04:35:56;;;;;;;28.60;22.35;;;;;;;14.37;66.72;101492.78;5036985;27;102154;-51
2021/11/01 04:54:12;;;;;;;29.15;22.60;;;;;;;14.38;66.70;101478.81;5033957;27;103956;-51
2021/11/01 04:56:39;;;;;;;27.92;21.73;;;;;;;14.38;66.53;101472.50;5036334;27;102144;-51
2021/11/01 04:59:08;;;;;;;27.58;21.30;;;;;;;14.38;66.49;101475.25;5028783;27;102282;-51
2021/11/01 05:01:52;;;;;;;;;;;;;;;14.39;66.67;101460.47;5033291;27;102383;-51
2021/11/01 05:04:25;;;;;;;28.48;20.92;;;;;;;14.39;66.00;101457.75;5024542;27;108135;-51
2021/11/01 05:06:59;;;;;;;27.77;21.52;;;;;;;14.39;66.46;101452.25;5027678;27;102430;-51
2021/11/01 05:09:33;;;;;;;26.85;21.08;;;;;;;14.39;66.51;101455.00;5029270;27;102692;-51
2021/11/01 05:14:42;;;;;;;26.13;20.98;;;;;;;14.39;66.48;101455.00;5032644;27;104141;-50
2021/11/01 05:19:39;;;;;;;28.17;21.15;;;;;;;14.39;66.66;101463.22;5030068;27;102166;-51
2021/11/01 05:24:48;;;;;;;27.25;20.55;;;;;;;14.39;66.50;101453.06;5029892;27;104680;-51
2021/11/01 05:30:06;;;;;;;25.85;21.05;;;;;;;14.38;67.01;101454.16;5029375;27;102099;-51
2021/11/01 05:32:36;;;;;;;27.05;20.58;;;;;;;14.39;66.72;101463.22;5030965;27;102079;-51
2021/11/01 05:35:03;;;;;;;27.80;21.40;;;;;;;14.39;66.90;101465.97;5035614;27;102782;-51
2021/11/01 05:37:31;;;;;;;24.63;19.75;;;;;;;14.39;66.81;101465.97;5032775;27;102553;-51
2021/11/01 05:39:57;;;;;;;25.38;20.23;;;;;;;14.39;66.64;101463.22;5028802;27;104271;-51
2021/11/01 05:42:24;;;;;;;26.90;21.42;;;;;;;14.39;66.89;101463.22;5030730;27;102703;-51
2021/11/01 05:44:50;;;;;;;26.55;20.70;;;;;;;14.39;66.90;101452.25;5028666;27;103886;-51
2021/11/01 05:47:18;;;;;;;25.95;21.10;;;;;;;14.40;66.69;101453.91;5025258;27;102641;-51
2021/11/01 05:49:44;;;;;;;28.10;21.73;;;;;;;14.39;66.69;101458.56;5030597;27;102396;-51
2021/11/01 05:52:22;;;;;;;29.40;21.42;;;;;;;14.41;66.57;101450.06;5032887;27;102616;-51
2021/11/01 05:54:53;;;;;;;26.02;20.48;;;;;;;14.40;66.75;101454.72;5029138;27;103990;-53
2021/11/01 05:57:47;;;;;;;26.95;20.88;;;;;;;14.39;66.74;101442.13;5033846;27;102082;-54
2021/11/01 06:00:59;;;;;;;28.15;20.20;;;;;;;14.40;66.91;101435.53;5036517;27;102236;-55
2021/11/01 06:03:03;;;;;;;27.42;22.20;;;;;;;14.40;66.79;101440.19;5039071;27;102399;-51
2021/11/01 06:05:59;;;;;;;26.48;21.17;;;;;;;14.40;66.50;101443.75;5048969;27;103907;-51
2021/11/01 06:08:42;;;;;;;28.08;20.35;;;;;;;14.41;66.78;101444.56;5049691;27;102064;-50
2021/11/01 06:13:53;;;;;;;25.70;21.05;;;;;;;14.40;66.69;101449.22;5036731;28;102218;-50
2021/11/01 06:16:20;;;;;;;28.20;21.05;;;;;;;14.41;66.75;101450.06;5033217;27;102410;-51
2021/11/01 06:18:47;;;;;;;26.15;21.95;;;;;;;14.41;66.72;101450.06;5028929;27;103846;-51
2021/11/01 06:21:15;;;;;;;31.80;22.77;;;;;;;14.41;66.71;101450.06;5036434;27;102112;-51
2021/11/01 06:23:43;;;;;;;;;;;;;;;14.41;66.82;101444.56;5029659;27;102592;-51
2021/11/01 06:26:11;;;;;;;31.75;22.55;;;;;;;14.40;66.75;101449.22;5028429;27;102759;-51
2021/11/01 06:28:43;;;;;;;28.58;22.02;;;;;;;14.40;66.34;101448.41;5031247;27;102525;-51
2021/11/01 06:31:13;;;;;;;28.40;21.95;;;;;;;14.39;66.66;101441.31;5029275;27;103030;-51
2021/11/01 06:33:54;;;;;;;29.10;22.67;;;;;;;14.39;66.59;101450.34;5032407;27;102318;-51
2021/11/01 06:49:51;;;;;;;29.23;23.25;;;;;;;14.40;66.92;101454.72;5029015;27;102250;-51
2021/11/01 06:55:24;;;;;;;33.35;23.10;;;;;;;14.39;66.77;101441.31;5029454;27;102121;-51
2021/11/01 08:25:35;;;;;;;31.52;23.17;;;;;;;14.39;66.95;101425.69;5031683;27;104850;-50
2021/11/01 08:38:49;;;;;;;29.35;22.38;;;;;;;14.40;67.07;101413.63;5030338;27;103003;-51
2021/11/01 08:41:41;;;;;;;27.10;21.63;;;;;;;14.40;66.96;101415.56;5032488;27;102386;-51
2021/11/01 09:19:26;;;;;;;28.20;21.15;;;;;;;14.42;66.67;101396.91;5032947;27;104029;-51
2021/11/01 09:22:39;;;;;;;27.33;21.55;;;;;;;14.42;67.01;101391.44;5027808;27;102326;-51
2021/11/01 09:24:45;;;;;;;26.17;20.15;;;;;;;14.41;67.18;101395.28;5025432;27;103668;-51
2021/11/01 09:27:24;;;;;;;26.42;21.00;;;;;;;14.42;67.04;101391.44;5034364;27;102454;-50
2021/11/01 09:38:55;;;;;;;29.05;21.50;;;;;;;14.42;67.12;101389.53;5027699;27;102565;-50
2021/11/01 09:41:10;;;;;;;27.50;20.63;;;;;;;14.42;67.50;101385.97;5025784;27;103897;-51
2021/11/01 09:43:38;;;;;;;26.27;21.13;;;;;;;14.42;67.06;101380.47;5032578;27;102529;-51
2021/11/01 09:46:09;;;;;;;27.43;21.73;;;;;;;14.42;67.21;101381.31;5029590;27;102196;-50
2021/11/01 09:48:37;;;;;;;26.83;21.65;;;;;;;14.41;66.89;101374.19;5034195;27;102415;-50
2021/11/01 09:51:04;;;;;;;25.20;19.63;;;;;;;14.43;67.03;101371.19;5031424;27;103775;-50
2021/11/01 09:53:40;;;;;;;24.63;20.60;;;;;;;14.43;67.16;101371.19;5028993;27;102926;-51
2021/11/01 09:59:12;;;;;;;24.45;20.27;;;;;;;14.43;67.08;101361.03;5036256;28;102470;-50
2021/11/01 10:01:40;;;;;;;23.10;19.42;;;;;;;14.43;67.04;101354.75;5032997;27;109362;-51
2021/11/01 10:04:14;;;;;;;26.02;20.48;;;;;;;14.43;66.82;101360.22;5029645;27;102266;-51
2021/11/01 10:06:41;;;;;;;26.63;21.23;;;;;;;14.43;67.08;101360.22;5029993;27;102331;-50
2021/11/01 10:09:12;;;;;;;26.13;20.45;;;;;;;14.43;67.10;101357.50;5031845;27;102547;-51
2021/11/01 10:11:44;;;;;;;26.35;21.13;;;;;;;14.43;67.27;101360.22;5021820;27;104023;-51
2021/11/01 10:14:12;;;;;;;24.52;21.05;;;;;;;14.43;67.22;101355.56;5024912;27;102181;-51
2021/11/01 10:19:31;;;;;;;24.45;20.38;;;;;;;14.43;67.23;101344.63;5026422;27;102761;-51
2021/11/01 10:22:00;;;;;;;23.83;19.67;;;;;;;14.44;67.18;101348.16;5019210;27;103926;-51
2021/11/01 10:24:32;;;;;;;25.85;21.52;;;;;;;14.43;67.12;101350.09;5026936;27;104202;-51
2021/11/01 10:27:04;;;;;;;23.70;20.50;;;;;;;14.44;67.10;101356.38;5031334;27;102195;-51
2021/11/01 10:29:33;;;;;;;25.95;19.65;;;;;;;14.43;67.12;101346.53;5034640;27;102078;-51
2021/11/01 10:32:00;;;;;;;25.08;19.98;;;;;;;14.44;67.10;101345.44;5029641;27;103948;-51
2021/11/01 10:34:28;;;;;;;24.13;21.13;;;;;;;14.45;67.29;101335.28;5031788;28;102158;-51
2021/11/01 10:36:58;;;;;;;26.33;20.50;;;;;;;14.44;67.32;101329.00;5030218;27;103597;-50
2021/11/01 10:39:25;;;;;;;24.40;19.92;;;;;;;14.45;67.07;101335.28;5030472;27;102310;-51
2021/11/01 10:42:13;;;;;;;25.73;20.55;;;;;;;14.45;67.14;101329.81;5026574;27;103686;-51
2021/11/01 10:44:50;;;;;;;24.73;19.02;;;;;;;14.45;67.42;101321.59;5027473;27;102419;-51
2021/11/01 11:12:32;;;;;;;27.73;19.55;;;;;;;14.44;67.35;101293.41;5033862;27;103678;-51
2021/11/01 11:15:07;;;;;;;25.30;19.77;;;;;;;14.46;67.20;101293.94;5033308;27;103696;-51
2021/11/01 11:17:47;;;;;;;24.15;19.75;;;;;;;14.46;67.08;101285.72;5022933;27;102778;-51
2021/11/01 11:20:41;;;;;;;25.70;18.95;;;;;;;14.45;67.25;101286.81;5022493;27;102528;-51
2021/11/01 11:28:55;;;;;;;26.55;19.65;;;;;;;14.46;67.58;101276.66;5028430;27;102871;-51
2021/11/01 11:37:12;;;;;;;24.80;19.35;;;;;;;14.46;67.44;101271.19;5034978;27;102211;-51
2021/11/01 11:47:42;;;;;;;25.20;19.70;;;;;;;14.45;67.32;101264.91;5028248;27;103916;-50
2021/11/01 11:50:18;;;;;;;24.23;19.27;;;;;;;14.46;67.44;101254.75;5033325;27;102368;-51
2021/11/01 11:52:44;;;;;;;25.35;19.25;;;;;;;14.47;67.49;101249.03;5033700;27;102162;-51
2021/11/01 11:55:18;;;;;;;25.88;18.23;;;;;;;14.46;67.38;101255.59;5030226;27;102163;-51
2021/11/01 11:57:54;;;;;;;22.25;18.98;;;;;;;14.45;67.52;101259.44;5031616;27;103985;-51
2021/11/01 12:00:20;;;;;;;23.90;18.88;;;;;;;14.45;67.29;101253.94;5029939;27;102661;-50
2021/11/01 12:02:49;;;;;;;26.02;18.83;;;;;;;14.47;67.21;101251.75;5032838;27;102226;-50
2021/11/01 12:05:28;;;;;;;;;;;;;;;14.47;67.11;101257.25;5030694;27;102430;-51
2021/11/01 12:08:05;;;;;;;24.90;18.25;;;;;;;14.47;67.46;101250.94;5030798;27;104272;-51
2021/11/01 12:13:56;;;;;;;23.55;18.88;;;;;;;14.46;67.50;101238.34;5033859;27;102257;-50
2021/11/01 12:18:46;;;;;;;26.73;18.77;;;;;;;14.48;67.35;101238.88;5028364;27;103955;-50
2021/11/01 12:21:14;;;;;;;26.75;19.15;;;;;;;14.46;67.47;101230.97;5032513;27;102806;-51
2021/11/01 12:23:43;;;;;;;26.33;19.50;;;;;;;14.46;67.42;101228.22;5035595;27;102281;-51
2021/11/01 12:26:10;;;;;;;23.77;18.98;;;;;;;14.46;67.43;101228.22;5036143;27;102187;-50
2021/11/01 12:28:38;;;;;;;23.85;18.27;;;;;;;14.46;67.52;101228.22;5032236;27;103920;-51
2021/11/01 12:31:05;;;;;;;24.90;19.65;;;;;;;14.47;67.42;101234.50;5036149;27;102189;-50
2021/11/01 12:33:32;;;;;;;24.20;19.50;;;;;;;14.46;67.25;101225.47;5036947;27;102667;-51
2021/11/01 12:36:03;;;;;;;24.13;18.52;;;;;;;14.46;67.34;101227.38;5033467;27;102305;-51
2021/11/01 12:41:18;;;;;;;25.93;19.17;;;;;;;14.46;67.31;101217.28;5030023;27;103855;-51
2021/11/01 12:49:53;;;;;;;27.67;20.13;;;;;;;14.46;67.65;101206.31;5022908;28;104076;-51
2021/11/01 12:57:58;;;;;;;23.63;19.05;;;;;;;14.46;67.59;101200.84;5035490;27;102287;-51
2021/11/01 13:00:24;;;;;;;23.35;19.10;;;;;;;14.46;67.67;101194.50;5033428;27;103955;-51
2021/11/01 13:02:51;;;;;;;23.38;18.83;;;;;;;14.46;67.32;101195.38;5032462;27;102053;-51
2021/11/01 13:05:21;;;;;;;23.63;19.25;;;;;;;14.45;67.33;101201.91;5030392;27;102125;-51
2021/11/01 13:08:04;;;;;;;23.50;19.70;;;;;;;14.46;67.68;101197.25;5031162;27;102469;-50
2021/11/01 13:10:49;;;;;;;25.55;19.20;;;;;;;14.46;67.44;101200.84;5029988;27;105470;-51
2021/11/01 13:18:22;;;;;;;23.73;19.38;;;;;;;14.46;67.78;101186.31;5035563;27;102163;-51
2021/11/01 13:20:57;;;;;;;28.73;20.27;;;;;;;14.46;67.42;101187.16;5031470;27;103657;-50
2021/11/01 13:23:26;;;;;;;25.15;19.50;;;;;;;14.45;67.64;101193.69;5023289;28;102123;-50
2021/11/01 13:26:20;;;;;;;22.90;19.10;;;;;;;14.45;67.06;101182.75;5035035;27;102076;-50
2021/11/01 13:37:43;;;;;;;26.63;19.33;;;;;;;14.46;67.36;101172.59;5027133;28;102217;-50
2021/11/01 13:40:06;;;;;;;22.92;19.00;;;;;;;14.44;67.62;101170.16;5032901;27;102163;-50
2021/11/01 13:42:34;;;;;;;21.83;17.73;;;;;;;14.45;67.56;101174.53;5032486;27;104032;-51
2021/11/01 13:45:09;;;;;;;25.15;18.75;;;;;;;14.46;67.48;101172.59;5036018;27;102154;-51
2021/11/01 13:47:42;;;;;;;23.52;18.75;;;;;;;14.45;67.38;101174.53;5024245;27;103470;-51
2021/11/01 13:50:09;;;;;;;22.85;18.73;;;;;;;14.45;67.57;101173.72;5028498;27;102247;-51
2021/11/01 13:52:40;;;;;;;23.95;18.45;;;;;;;14.45;67.47;101181.94;5023691;27;103790;-50
2021/11/01 13:57:47;;;;;;;23.98;18.83;;;;;;;14.45;67.54;101171.78;5020388;27;102837;-50
2021/11/01 14:03:07;;;;;;;21.48;18.40;;;;;;;14.45;67.45;101174.53;5041970;27;103933;-51
2021/11/01 14:17:02;;;;;;;23.80;19.05;;;;;;;14.44;67.63;101175.66;5030209;27;103587;-51
2021/11/01 15:21:07;;;;;;;24.60;18.65;;;;;;;14.43;67.70;101152.13;5029034;27;103498;-50
2021/11/01 15:36:49;;;;;;;23.88;19.50;;;;;;;14.44;67.44;101153.75;5032518;27;102190;-51
2021/11/01 16:20:17;;;;;;;27.08;21.38;;;;;;;14.45;67.84;101177.28;5036040;27;102060;-51
2021/11/01 16:22:45;;;;;;;28.52;21.33;;;;;;;14.44;67.45;101175.66;5033532;27;103894;-50
2021/11/01 16:25:11;;;;;;;28.10;22.13;;;;;;;14.45;67.61;101180.00;5033113;27;102759;-50
2021/11/01 16:27:45;;;;;;;29.33;22.48;;;;;;;14.45;67.91;101182.75;5032440;27;102467;-51
2021/11/01 16:30:21;;;;;;;27.48;21.48;;;;;;;14.45;67.80;101177.28;5035102;27;102298;-50
2021/11/01 16:32:54;;;;;;;31.10;22.27;;;;;;;14.45;67.81;101170.97;5034997;28;103394;-50
2021/11/01 16:35:25;;;;;;;30.05;22.63;;;;;;;14.46;67.76;101178.94;5031787;27;102373;-51
2021/11/01 16:40:33;;;;;;;29.30;22.63;;;;;;;14.45;67.83;101180.00;5032976;27;103965;-51
2021/11/01 16:43:02;;;;;;;31.45;23.92;;;;;;;14.46;67.67;101175.34;5032968;27;103935;-51
2021/11/01 16:45:36;;;;;;;28.38;22.67;;;;;;;14.46;67.85;101178.94;5035713;27;103125;-51
2021/11/01 16:48:04;;;;;;;29.30;22.20;;;;;;;14.46;67.90;101167.13;5018061;27;102830;-51
2021/11/01 16:50:30;;;;;;;30.38;22.48;;;;;;;14.46;67.67;101173.44;5031126;27;102262;-51
2021/11/01 16:52:59;;;;;;;28.17;22.92;;;;;;;14.46;67.89;101172.59;5032296;27;104035;-50
2021/11/01 16:55:33;;;;;;;28.77;22.77;;;;;;;14.46;67.92;101176.19;5030321;27;102588;-51
2021/11/01 16:58:10;;;;;;;27.85;21.73;;;;;;;14.47;67.90;101174.25;5031962;27;102604;-50
2021/11/01 17:00:54;;;;;;;30.17;23.35;;;;;;;14.46;67.86;101173.44;5030747;27;102681;-50
2021/11/01 17:06:00;;;;;;;30.08;23.73;;;;;;;14.46;67.71;101172.59;5035745;27;102425;-50
2021/11/01 17:22:39;;;;;;;30.25;22.90;;;;;;;14.46;68.02;101157.03;5027171;27;102145;-51
2021/11/01 17:27:48;;;;;;;31.17;24.05;;;;;;;14.47;68.04;101144.97;5031719;27;102413;-51
